sensor_id;sensor_type;location;lat;lon;timestamp;pressure;altitude;pressure_sealevel;temperature;humidity
82388;BME280;72027;47.420;9.310;2023-08-17T00:00:14;93536.63;;;17.80;72.76
82388;BME280;72027;47.420;9.310;2023-08-17T00:02:44;93533.56;;;17.73;72.39
82388;BME280;72027;47.420;9.310;2023-08-17T00:05:13;93535.88;;;17.69;73.30
82388;BME280;72027;47.420;9.310;2023-08-17T00:07:41;93537.88;;;17.63;73.19
82388;BME280;72027;47.420;9.310;2023-08-17T00:10:09;93538.16;;;17.59;73.19
82388;BME280;72027;47.420;9.310;2023-08-17T00:12:37;93534.81;;;17.55;73.41
82388;BME280;72027;47.420;9.310;2023-08-17T00:15:06;93541.44;;;17.52;73.84
82388;BME280;72027;47.420;9.310;2023-08-17T00:17:33;93535.09;;;17.46;74.41
82388;BME280;72027;47.420;9.310;2023-08-17T00:20:01;93540.41;;;17.44;74.58
82388;BME280;72027;47.420;9.310;2023-08-17T00:22:32;93541.44;;;17.41;74.10
82388;BME280;72027;47.420;9.310;2023-08-17T00:25:00;93541.69;;;17.37;74.74
82388;BME280;72027;47.420;9.310;2023-08-17T00:27:29;93543.72;;;17.36;74.34
82388;BME280;72027;47.420;9.310;2023-08-17T00:29:57;93540.41;;;17.32;74.36
82388;BME280;72027;47.420;9.310;2023-08-17T00:32:25;93533.78;;;17.30;74.65
82388;BME280;72027;47.420;9.310;2023-08-17T00:34:53;93534.06;;;17.26;74.71
82388;BME280;72027;47.420;9.310;2023-08-17T00:37:21;93526.66;;;17.23;74.67
82388;BME280;72027;47.420;9.310;2023-08-17T00:39:50;93538.84;;;17.20;75.67
82388;BME280;72027;47.420;9.310;2023-08-17T00:42:18;93540.41;;;17.15;75.26
82388;BME280;72027;47.420;9.310;2023-08-17T00:44:46;93535.56;;;17.10;76.34
82388;BME280;72027;47.420;9.310;2023-08-17T00:47:14;93537.81;;;17.06;74.91
82388;BME280;72027;47.420;9.310;2023-08-17T00:49:42;93541.13;;;17.05;76.51
82388;BME280;72027;47.420;9.310;2023-08-17T00:52:10;93533.50;;;17.00;75.34
82388;BME280;72027;47.420;9.310;2023-08-17T00:54:38;93531.69;;;16.97;75.62
82388;BME280;72027;47.420;9.310;2023-08-17T00:57:08;93525.84;;;16.94;76.15
82388;BME280;72027;47.420;9.310;2023-08-17T00:59:36;93538.81;;;16.92;76.33
82388;BME280;72027;47.420;9.310;2023-08-17T01:02:05;93536.25;;;16.88;76.87
82388;BME280;72027;47.420;9.310;2023-08-17T01:04:35;93536.00;;;16.86;76.52
82388;BME280;72027;47.420;9.310;2023-08-17T01:07:03;93534.72;;;16.82;76.58
82388;BME280;72027;47.420;9.310;2023-08-17T01:09:32;93534.16;;;16.78;77.17
82388;BME280;72027;47.420;9.310;2023-08-17T01:12:05;93538.19;;;16.71;77.62
82388;BME280;72027;47.420;9.310;2023-08-17T01:14:44;93532.59;;;16.65;77.69
82388;BME280;72027;47.420;9.310;2023-08-17T01:17:22;93539.19;;;16.62;76.98
82388;BME280;72027;47.420;9.310;2023-08-17T01:19:53;93528.22;;;16.59;78.15
82388;BME280;72027;47.420;9.310;2023-08-17T01:22:21;93531.28;;;16.55;78.10
82388;BME280;72027;47.420;9.310;2023-08-17T01:24:54;93529.50;;;16.52;77.93
82388;BME280;72027;47.420;9.310;2023-08-17T01:27:23;93530.50;;;16.49;78.95
82388;BME280;72027;47.420;9.310;2023-08-17T01:29:52;93539.38;;;16.47;77.88
82388;BME280;72027;47.420;9.310;2023-08-17T01:32:30;93534.28;;;16.46;78.05
82388;BME280;72027;47.420;9.310;2023-08-17T01:35:02;93537.59;;;16.44;78.73
82388;BME280;72027;47.420;9.310;2023-08-17T01:37:33;93534.53;;;16.42;77.99
82388;BME280;72027;47.420;9.310;2023-08-17T01:40:05;93533.75;;;16.36;79.24
82388;BME280;72027;47.420;9.310;2023-08-17T01:42:34;93531.69;;;16.31;79.24
82388;BME280;72027;47.420;9.310;2023-08-17T01:45:02;93523.75;;;16.24;79.26
82388;BME280;72027;47.420;9.310;2023-08-17T01:47:30;93528.31;;;16.21;79.18
82388;BME280;72027;47.420;9.310;2023-08-17T01:49:58;93521.69;;;16.19;79.86
82388;BME280;72027;47.420;9.310;2023-08-17T01:52:27;93526.03;;;16.20;79.41
82388;BME280;72027;47.420;9.310;2023-08-17T01:54:55;93524.28;;;16.22;78.97
82388;BME280;72027;47.420;9.310;2023-08-17T01:57:24;93530.88;;;16.25;79.13
82388;BME280;72027;47.420;9.310;2023-08-17T01:59:52;93527.09;;;16.28;79.15
82388;BME280;72027;47.420;9.310;2023-08-17T02:02:20;93528.59;;;16.29;78.89
82388;BME280;72027;47.420;9.310;2023-08-17T02:04:49;93526.84;;;16.32;78.83
82388;BME280;72027;47.420;9.310;2023-08-17T02:07:16;93522.00;;;16.32;78.79
82388;BME280;72027;47.420;9.310;2023-08-17T02:09:48;93527.13;;;16.34;79.11
82388;BME280;72027;47.420;9.310;2023-08-17T02:12:16;93523.56;;;16.33;78.57
82388;BME280;72027;47.420;9.310;2023-08-17T02:14:45;93516.94;;;16.31;78.57
82388;BME280;72027;47.420;9.310;2023-08-17T02:17:13;93531.88;;;16.27;77.87
82388;BME280;72027;47.420;9.310;2023-08-17T02:19:42;93520.97;;;16.24;79.52
82388;BME280;72027;47.420;9.310;2023-08-17T02:22:10;93517.91;;;16.22;77.98
82388;BME280;72027;47.420;9.310;2023-08-17T02:24:38;93521.97;;;16.21;79.03
82388;BME280;72027;47.420;9.310;2023-08-17T02:27:08;93527.28;;;16.19;78.70
82388;BME280;72027;47.420;9.310;2023-08-17T02:29:36;93521.94;;;16.15;79.43
82388;BME280;72027;47.420;9.310;2023-08-17T02:32:05;93516.59;;;16.12;78.82
82388;BME280;72027;47.420;9.310;2023-08-17T02:34:33;93524.69;;;16.10;78.48
82388;BME280;72027;47.420;9.310;2023-08-17T02:37:01;93534.09;;;16.06;79.49
82388;BME280;72027;47.420;9.310;2023-08-17T02:39:29;93525.91;;;16.03;79.22
82388;BME280;72027;47.420;9.310;2023-08-17T02:41:57;93526.91;;;16.00;79.80
82388;BME280;72027;47.420;9.310;2023-08-17T02:44:24;93522.59;;;15.99;79.44
82388;BME280;72027;47.420;9.310;2023-08-17T02:46:54;93522.06;;;15.95;80.43
82388;BME280;72027;47.420;9.310;2023-08-17T02:49:23;93523.81;;;15.92;79.77
82388;BME280;72027;47.420;9.310;2023-08-17T02:51:51;93531.13;;;15.84;80.46
82388;BME280;72027;47.420;9.310;2023-08-17T02:54:19;93530.56;;;15.74;81.54
82388;BME280;72027;47.420;9.310;2023-08-17T02:56:47;93529.28;;;15.70;80.80
82388;BME280;72027;47.420;9.310;2023-08-17T02:59:14;93528.00;;;15.71;80.55
82388;BME280;72027;47.420;9.310;2023-08-17T03:01:43;93525.19;;;15.71;80.06
82388;BME280;72027;47.420;9.310;2023-08-17T03:04:12;93526.75;;;15.72;81.01
82388;BME280;72027;47.420;9.310;2023-08-17T03:06:41;93531.81;;;15.73;80.97
82388;BME280;72027;47.420;9.310;2023-08-17T03:09:09;93527.22;;;15.70;80.85
82388;BME280;72027;47.420;9.310;2023-08-17T03:11:37;93531.75;;;15.68;80.83
82388;BME280;72027;47.420;9.310;2023-08-17T03:14:05;93521.59;;;15.64;80.50
82388;BME280;72027;47.420;9.310;2023-08-17T03:16:33;93524.09;;;15.62;80.73
82388;BME280;72027;47.420;9.310;2023-08-17T03:19:01;93519.75;;;15.56;81.28
82388;BME280;72027;47.420;9.310;2023-08-17T03:21:29;93523.75;;;15.49;81.00
82388;BME280;72027;47.420;9.310;2023-08-17T03:23:58;93523.97;;;15.46;81.25
82388;BME280;72027;47.420;9.310;2023-08-17T03:26:26;93524.19;;;15.42;81.75
82388;BME280;72027;47.420;9.310;2023-08-17T03:28:53;93523.16;;;15.39;81.86
82388;BME280;72027;47.420;9.310;2023-08-17T03:31:21;93522.19;;;15.43;81.33
82388;BME280;72027;47.420;9.310;2023-08-17T03:33:49;93523.97;;;15.46;81.28
82388;BME280;72027;47.420;9.310;2023-08-17T03:36:19;93525.22;;;15.45;81.05
82388;BME280;72027;47.420;9.310;2023-08-17T03:38:46;93516.84;;;15.45;80.41
82388;BME280;72027;47.420;9.310;2023-08-17T03:41:15;93521.41;;;15.42;81.04
82388;BME280;72027;47.420;9.310;2023-08-17T03:43:43;93519.88;;;15.41;80.57
82388;BME280;72027;47.420;9.310;2023-08-17T03:46:11;93514.78;;;15.39;80.65
82388;BME280;72027;47.420;9.310;2023-08-17T03:48:39;93516.81;;;15.39;80.35
82388;BME280;72027;47.420;9.310;2023-08-17T03:51:07;93517.56;;;15.39;79.86
82388;BME280;72027;47.420;9.310;2023-08-17T03:53:35;93531.03;;;15.41;79.86
82388;BME280;72027;47.420;9.310;2023-08-17T03:56:03;93522.66;;;15.41;80.42
82388;BME280;72027;47.420;9.310;2023-08-17T03:58:32;93530.56;;;15.43;80.33
82388;BME280;72027;47.420;9.310;2023-08-17T04:01:01;93528.53;;;15.43;79.58
82388;BME280;72027;47.420;9.310;2023-08-17T04:03:30;93527.53;;;15.46;78.94
82388;BME280;72027;47.420;9.310;2023-08-17T04:06:04;93529.06;;;15.47;79.29
82388;BME280;72027;47.420;9.310;2023-08-17T04:08:32;93532.59;;;15.48;78.41
82388;BME280;72027;47.420;9.310;2023-08-17T04:11:00;93530.84;;;15.50;78.49
82388;BME280;72027;47.420;9.310;2023-08-17T04:13:28;93530.38;;;15.52;79.16
82388;BME280;72027;47.420;9.310;2023-08-17T04:15:58;93523.25;;;15.51;78.84
82388;BME280;72027;47.420;9.310;2023-08-17T04:18:26;93530.09;;;15.50;78.50
82388;BME280;72027;47.420;9.310;2023-08-17T04:20:54;93530.59;;;15.48;78.18
82388;BME280;72027;47.420;9.310;2023-08-17T04:23:22;93526.78;;;15.46;78.89
82388;BME280;72027;47.420;9.310;2023-08-17T04:25:50;93524.97;;;15.43;79.33
82388;BME280;72027;47.420;9.310;2023-08-17T04:28:18;93523.94;;;15.40;79.14
82388;BME280;72027;47.420;9.310;2023-08-17T04:30:46;93521.16;;;15.40;79.27
82388;BME280;72027;47.420;9.310;2023-08-17T04:33:15;93520.88;;;15.38;79.58
82388;BME280;72027;47.420;9.310;2023-08-17T04:35:46;93522.91;;;15.37;79.41
82388;BME280;72027;47.420;9.310;2023-08-17T04:38:14;93531.28;;;15.37;79.16
82388;BME280;72027;47.420;9.310;2023-08-17T04:40:43;93529.25;;;15.38;79.12
82388;BME280;72027;47.420;9.310;2023-08-17T04:43:12;93530.28;;;15.40;79.03
82388;BME280;72027;47.420;9.310;2023-08-17T04:45:40;93532.84;;;15.44;78.63
82388;BME280;72027;47.420;9.310;2023-08-17T04:48:08;93533.63;;;15.50;79.18
82388;BME280;72027;47.420;9.310;2023-08-17T04:50:37;93541.13;;;15.64;78.22
82388;BME280;72027;47.420;9.310;2023-08-17T04:53:05;93535.38;;;15.74;78.87
82388;BME280;72027;47.420;9.310;2023-08-17T04:55:34;93537.97;;;15.77;78.86
82388;BME280;72027;47.420;9.310;2023-08-17T04:58:02;93534.94;;;15.81;78.76
82388;BME280;72027;47.420;9.310;2023-08-17T05:00:29;93547.16;;;15.89;78.09
82388;BME280;72027;47.420;9.310;2023-08-17T05:02:58;93537.59;;;15.96;77.58
82388;BME280;72027;47.420;9.310;2023-08-17T05:05:32;93538.13;;;16.05;78.66
82388;BME280;72027;47.420;9.310;2023-08-17T05:08:06;93537.94;;;16.15;78.61
82388;BME280;72027;47.420;9.310;2023-08-17T05:10:35;93540.78;;;16.26;79.00
82388;BME280;72027;47.420;9.310;2023-08-17T05:13:03;93539.31;;;16.36;79.60
82388;BME280;72027;47.420;9.310;2023-08-17T05:15:31;93540.66;;;16.46;78.25
82388;BME280;72027;47.420;9.310;2023-08-17T05:18:02;93533.56;;;16.57;78.95
82388;BME280;72027;47.420;9.310;2023-08-17T05:20:30;93535.13;;;16.63;77.68
82388;BME280;72027;47.420;9.310;2023-08-17T05:22:58;93544.06;;;16.73;77.82
82388;BME280;72027;47.420;9.310;2023-08-17T05:25:27;93539.78;;;16.83;77.76
82388;BME280;72027;47.420;9.310;2023-08-17T05:27:56;93542.09;;;16.90;76.84
82388;BME280;72027;47.420;9.310;2023-08-17T05:30:23;93547.47;;;17.00;77.77
82388;BME280;72027;47.420;9.310;2023-08-17T05:32:52;93548.53;;;17.08;76.60
82388;BME280;72027;47.420;9.310;2023-08-17T05:35:20;93544.44;;;17.14;76.82
82388;BME280;72027;47.420;9.310;2023-08-17T05:37:49;93551.84;;;17.23;75.82
82388;BME280;72027;47.420;9.310;2023-08-17T05:40:17;93549.06;;;17.29;75.40
82388;BME280;72027;47.420;9.310;2023-08-17T05:42:46;93551.88;;;17.34;75.49
82388;BME280;72027;47.420;9.310;2023-08-17T05:45:14;93556.97;;;17.42;74.80
82388;BME280;72027;47.420;9.310;2023-08-17T05:47:41;93539.94;;;17.45;74.93
82388;BME280;72027;47.420;9.310;2023-08-17T05:50:09;93542.47;;;17.49;75.03
82388;BME280;72027;47.420;9.310;2023-08-17T05:52:38;93545.00;;;17.52;75.39
82388;BME280;72027;47.420;9.310;2023-08-17T05:55:07;93558.78;;;17.56;75.09
82388;BME280;72027;47.420;9.310;2023-08-17T05:57:43;93556.72;;;17.62;74.69
82388;BME280;72027;47.420;9.310;2023-08-17T06:00:13;93549.84;;;17.63;73.22
82388;BME280;72027;47.420;9.310;2023-08-17T06:02:42;93556.47;;;17.66;73.94
82388;BME280;72027;47.420;9.310;2023-08-17T06:05:10;93544.50;;;17.71;74.11
82388;BME280;72027;47.420;9.310;2023-08-17T06:07:37;93551.38;;;17.75;74.94
82388;BME280;72027;47.420;9.310;2023-08-17T06:10:06;93552.16;;;17.81;75.48
82388;BME280;72027;47.420;9.310;2023-08-17T06:12:34;93554.47;;;17.89;74.87
82388;BME280;72027;47.420;9.310;2023-08-17T06:15:02;93558.03;;;17.95;75.09
82388;BME280;72027;47.420;9.310;2023-08-17T06:17:31;93565.41;;;18.03;75.09
82388;BME280;72027;47.420;9.310;2023-08-17T06:19:59;93566.66;;;18.08;74.16
82388;BME280;72027;47.420;9.310;2023-08-17T06:22:27;93562.34;;;18.13;74.26
82388;BME280;72027;47.420;9.310;2023-08-17T06:24:55;93567.19;;;18.18;73.92
82388;BME280;72027;47.420;9.310;2023-08-17T06:27:22;93564.34;;;18.23;72.91
82388;BME280;72027;47.420;9.310;2023-08-17T06:29:50;93564.34;;;18.29;73.03
82388;BME280;72027;47.420;9.310;2023-08-17T06:32:18;93568.69;;;18.36;72.03
82388;BME280;72027;47.420;9.310;2023-08-17T06:34:47;93567.66;;;18.39;70.29
82388;BME280;72027;47.420;9.310;2023-08-17T06:37:15;93568.38;;;18.45;69.78
82388;BME280;72027;47.420;9.310;2023-08-17T06:39:43;93572.72;;;18.52;69.12
82388;BME280;72027;47.420;9.310;2023-08-17T06:42:11;93570.91;;;18.60;69.14
82388;BME280;72027;47.420;9.310;2023-08-17T06:44:38;93570.09;;;18.70;68.88
82388;BME280;72027;47.420;9.310;2023-08-17T06:47:06;93572.66;;;18.80;68.55
82388;BME280;72027;47.420;9.310;2023-08-17T06:49:34;93576.69;;;18.90;67.88
82388;BME280;72027;47.420;9.310;2023-08-17T06:52:04;93577.13;;;19.05;67.89
82388;BME280;72027;47.420;9.310;2023-08-17T06:54:32;93573.47;;;19.22;68.73
82388;BME280;72027;47.420;9.310;2023-08-17T06:57:00;93571.34;;;19.39;68.75
82388;BME280;72027;47.420;9.310;2023-08-17T06:59:28;93573.53;;;19.57;69.27
82388;BME280;72027;47.420;9.310;2023-08-17T07:01:57;93574.94;;;19.75;68.28
82388;BME280;72027;47.420;9.310;2023-08-17T07:04:24;93583.03;;;19.90;68.04
82388;BME280;72027;47.420;9.310;2023-08-17T07:06:52;93591.59;;;20.04;67.15
82388;BME280;72027;47.420;9.310;2023-08-17T07:09:21;93582.00;;;20.18;66.72
82388;BME280;72027;47.420;9.310;2023-08-17T07:11:49;93579.88;;;20.30;65.09
82388;BME280;72027;47.420;9.310;2023-08-17T07:14:17;93572.84;;;20.42;65.43
82388;BME280;72027;47.420;9.310;2023-08-17T07:16:48;93577.34;;;20.56;65.72
82388;BME280;72027;47.420;9.310;2023-08-17T07:19:15;93571.03;;;20.69;64.84
82388;BME280;72027;47.420;9.310;2023-08-17T07:21:43;93573.97;;;20.82;64.34
82388;BME280;72027;47.420;9.310;2023-08-17T07:24:12;93571.47;;;20.98;64.41
82388;BME280;72027;47.420;9.310;2023-08-17T07:26:42;93578.75;;;21.12;63.68
82388;BME280;72027;47.420;9.310;2023-08-17T07:29:10;93582.16;;;21.24;62.87
82388;BME280;72027;47.420;9.310;2023-08-17T07:31:38;93586.66;;;21.32;62.64
82388;BME280;72027;47.420;9.310;2023-08-17T07:34:09;93587.84;;;21.43;62.56
82388;BME280;72027;47.420;9.310;2023-08-17T07:36:37;93595.69;;;21.50;62.16
82388;BME280;72027;47.420;9.310;2023-08-17T07:39:04;93594.84;;;21.55;61.84
82388;BME280;72027;47.420;9.310;2023-08-17T07:41:32;93595.28;;;21.59;62.32
82388;BME280;72027;47.420;9.310;2023-08-17T07:44:02;93592.78;;;21.74;63.21
82388;BME280;72027;47.420;9.310;2023-08-17T07:46:30;93603.03;;;21.91;63.04
82388;BME280;72027;47.420;9.310;2023-08-17T07:48:58;93598.66;;;22.09;62.17
82388;BME280;72027;47.420;9.310;2023-08-17T07:51:25;93593.41;;;22.18;60.68
82388;BME280;72027;47.420;9.310;2023-08-17T07:53:56;93604.88;;;22.39;59.55
82388;BME280;72027;47.420;9.310;2023-08-17T07:56:24;93597.22;;;22.80;59.52
82388;BME280;72027;47.420;9.310;2023-08-17T07:58:53;93603.84;;;23.36;58.83
82388;BME280;72027;47.420;9.310;2023-08-17T08:01:22;93603.53;;;23.87;57.88
82388;BME280;72027;47.420;9.310;2023-08-17T08:03:50;93595.63;;;24.27;57.42
82388;BME280;72027;47.420;9.310;2023-08-17T08:06:18;93602.19;;;24.64;56.16
82388;BME280;72027;47.420;9.310;2023-08-17T08:08:46;93607.56;;;25.04;55.30
82388;BME280;72027;47.420;9.310;2023-08-17T08:11:14;93600.97;;;25.30;53.31
82388;BME280;72027;47.420;9.310;2023-08-17T08:13:42;93602.75;;;25.48;52.42
82388;BME280;72027;47.420;9.310;2023-08-17T08:16:10;93600.75;;;25.64;50.51
82388;BME280;72027;47.420;9.310;2023-08-17T08:18:39;93603.50;;;25.85;51.60
82388;BME280;72027;47.420;9.310;2023-08-17T08:21:07;93599.94;;;26.00;51.06
82388;BME280;72027;47.420;9.310;2023-08-17T08:23:35;93602.78;;;26.08;50.41
82388;BME280;72027;47.420;9.310;2023-08-17T08:26:03;93601.09;;;26.12;50.53
82388;BME280;72027;47.420;9.310;2023-08-17T08:28:31;93610.78;;;26.17;50.59
82388;BME280;72027;47.420;9.310;2023-08-17T08:31:01;93607.19;;;26.32;50.63
82388;BME280;72027;47.420;9.310;2023-08-17T08:33:29;93604.38;;;26.47;51.75
82388;BME280;72027;47.420;9.310;2023-08-17T08:35:58;93608.75;;;26.64;50.50
82388;BME280;72027;47.420;9.310;2023-08-17T08:38:26;93609.13;;;26.75;50.03
82388;BME280;72027;47.420;9.310;2023-08-17T08:40:54;93604.97;;;26.99;50.60
82388;BME280;72027;47.420;9.310;2023-08-17T08:43:21;93610.63;;;27.30;51.00
82388;BME280;72027;47.420;9.310;2023-08-17T08:45:51;93611.06;;;27.67;51.22
82388;BME280;72027;47.420;9.310;2023-08-17T08:48:19;93612.69;;;28.01;49.58
82388;BME280;72027;47.420;9.310;2023-08-17T08:50:50;93615.97;;;28.22;46.61
82388;BME280;72027;47.420;9.310;2023-08-17T08:53:25;93611.44;;;28.19;45.66
82388;BME280;72027;47.420;9.310;2023-08-17T08:55:57;93612.09;;;28.02;45.18
82388;BME280;72027;47.420;9.310;2023-08-17T08:58:26;93610.97;;;27.98;46.54
82388;BME280;72027;47.420;9.310;2023-08-17T09:00:57;93611.06;;;28.15;47.21
82388;BME280;72027;47.420;9.310;2023-08-17T09:03:25;93613.38;;;28.42;47.15
82388;BME280;72027;47.420;9.310;2023-08-17T09:05:55;93604.66;;;28.72;46.71
82388;BME280;72027;47.420;9.310;2023-08-17T09:08:28;93605.91;;;29.04;46.35
82388;BME280;72027;47.420;9.310;2023-08-17T09:10:57;93612.50;;;29.32;46.16
82388;BME280;72027;47.420;9.310;2023-08-17T09:13:25;93607.72;;;29.52;44.80
82388;BME280;72027;47.420;9.310;2023-08-17T09:15:52;93601.75;;;29.57;43.17
82388;BME280;72027;47.420;9.310;2023-08-17T09:18:20;93603.00;;;29.47;42.90
82388;BME280;72027;47.420;9.310;2023-08-17T09:20:51;93615.34;;;29.49;44.53
82388;BME280;72027;47.420;9.310;2023-08-17T09:23:21;93609.25;;;29.53;43.67
82388;BME280;72027;47.420;9.310;2023-08-17T09:25:50;93607.13;;;29.36;42.76
82388;BME280;72027;47.420;9.310;2023-08-17T09:28:24;93606.44;;;29.10;43.25
82388;BME280;72027;47.420;9.310;2023-08-17T09:30:53;93609.88;;;28.84;43.87
82388;BME280;72027;47.420;9.310;2023-08-17T09:33:22;93604.28;;;28.68;46.79
82388;BME280;72027;47.420;9.310;2023-08-17T09:35:51;93601.31;;;28.59;48.33
82388;BME280;72027;47.420;9.310;2023-08-17T09:38:24;93601.03;;;28.47;47.58
82388;BME280;72027;47.420;9.310;2023-08-17T09:40:53;93603.72;;;28.37;47.30
82388;BME280;72027;47.420;9.310;2023-08-17T09:43:22;93602.97;;;28.37;47.03
82388;BME280;72027;47.420;9.310;2023-08-17T09:45:51;93602.53;;;28.48;50.39
82388;BME280;72027;47.420;9.310;2023-08-17T09:48:19;93608.59;;;28.52;49.84
82388;BME280;72027;47.420;9.310;2023-08-17T09:50:47;93608.97;;;28.48;50.18
82388;BME280;72027;47.420;9.310;2023-08-17T09:53:16;93606.91;;;28.49;49.85
82388;BME280;72027;47.420;9.310;2023-08-17T09:55:45;93615.22;;;28.54;50.92
82388;BME280;72027;47.420;9.310;2023-08-17T09:58:14;93614.63;;;28.56;51.18
82388;BME280;72027;47.420;9.310;2023-08-17T10:00:44;93606.09;;;28.56;49.43
82388;BME280;72027;47.420;9.310;2023-08-17T10:03:17;93613.94;;;28.48;49.71
82388;BME280;72027;47.420;9.310;2023-08-17T10:05:51;93613.66;;;28.28;48.01
82388;BME280;72027;47.420;9.310;2023-08-17T10:08:21;93610.31;;;28.15;49.55
82388;BME280;72027;47.420;9.310;2023-08-17T10:10:50;93603.06;;;27.81;51.22
82388;BME280;72027;47.420;9.310;2023-08-17T10:13:28;93609.25;;;27.39;51.84
82388;BME280;72027;47.420;9.310;2023-08-17T10:16:02;93612.72;;;27.07;52.70
82388;BME280;72027;47.420;9.310;2023-08-17T10:18:37;93614.06;;;26.83;54.31
82388;BME280;72027;47.420;9.310;2023-08-17T10:21:08;93615.00;;;26.70;55.50
82388;BME280;72027;47.420;9.310;2023-08-17T10:23:38;93606.28;;;26.52;54.37
82388;BME280;72027;47.420;9.310;2023-08-17T10:26:09;93613.88;;;26.65;55.82
82388;BME280;72027;47.420;9.310;2023-08-17T10:28:39;93608.94;;;26.96;54.69
82388;BME280;72027;47.420;9.310;2023-08-17T10:31:08;93615.16;;;27.26;53.49
82388;BME280;72027;47.420;9.310;2023-08-17T10:33:37;93615.31;;;27.51;54.27
82388;BME280;72027;47.420;9.310;2023-08-17T10:36:08;93613.09;;;27.89;52.28
82388;BME280;72027;47.420;9.310;2023-08-17T10:38:36;93620.03;;;28.12;49.14
82388;BME280;72027;47.420;9.310;2023-08-17T10:41:08;93611.78;;;28.23;49.41
82388;BME280;72027;47.420;9.310;2023-08-17T10:43:56;93613.19;;;28.40;48.36
82388;BME280;72027;47.420;9.310;2023-08-17T10:46:32;93607.84;;;28.76;49.15
82388;BME280;72027;47.420;9.310;2023-08-17T10:49:02;93608.94;;;29.06;49.28
82388;BME280;72027;47.420;9.310;2023-08-17T10:51:31;93612.31;;;29.30;46.88
82388;BME280;72027;47.420;9.310;2023-08-17T10:54:02;93609.22;;;29.35;44.05
82388;BME280;72027;47.420;9.310;2023-08-17T10:56:30;93605.28;;;29.31;44.40
82388;BME280;72027;47.420;9.310;2023-08-17T10:59:04;93608.38;;;29.08;44.65
82388;BME280;72027;47.420;9.310;2023-08-17T11:01:51;93607.22;;;28.86;45.93
82388;BME280;72027;47.420;9.310;2023-08-17T11:04:20;93607.56;;;28.65;46.47
82388;BME280;72027;47.420;9.310;2023-08-17T11:07:00;93609.22;;;28.35;47.71
82388;BME280;72027;47.420;9.310;2023-08-17T11:09:28;93610.94;;;28.05;47.41
82388;BME280;72027;47.420;9.310;2023-08-17T11:12:00;93613.50;;;27.78;49.07
82388;BME280;72027;47.420;9.310;2023-08-17T11:14:33;93615.84;;;27.57;49.46
82388;BME280;72027;47.420;9.310;2023-08-17T11:17:03;93615.88;;;27.41;49.42
82388;BME280;72027;47.420;9.310;2023-08-17T11:19:32;93617.25;;;27.25;49.77
82388;BME280;72027;47.420;9.310;2023-08-17T11:22:00;93615.34;;;27.12;49.55
82388;BME280;72027;47.420;9.310;2023-08-17T11:24:28;93613.66;;;27.01;50.50
82388;BME280;72027;47.420;9.310;2023-08-17T11:26:56;93611.22;;;26.90;50.80
82388;BME280;72027;47.420;9.310;2023-08-17T11:29:24;93609.13;;;26.83;50.81
82388;BME280;72027;47.420;9.310;2023-08-17T11:31:54;93610.47;;;26.74;50.62
82388;BME280;72027;47.420;9.310;2023-08-17T11:34:22;93607.06;;;26.68;51.17
82388;BME280;72027;47.420;9.310;2023-08-17T11:36:50;93601.38;;;26.68;51.88
82388;BME280;72027;47.420;9.310;2023-08-17T11:39:18;93595.31;;;26.64;51.51
82388;BME280;72027;47.420;9.310;2023-08-17T11:41:48;93598.13;;;26.56;51.47
82388;BME280;72027;47.420;9.310;2023-08-17T11:44:18;93590.72;;;26.46;51.22
82388;BME280;72027;47.420;9.310;2023-08-17T11:46:49;93598.13;;;26.41;52.25
82388;BME280;72027;47.420;9.310;2023-08-17T11:49:19;93588.28;;;26.42;52.55
82388;BME280;72027;47.420;9.310;2023-08-17T11:51:47;93594.34;;;26.46;53.33
82388;BME280;72027;47.420;9.310;2023-08-17T11:54:14;93599.25;;;26.46;53.37
82388;BME280;72027;47.420;9.310;2023-08-17T11:56:42;93604.16;;;26.45;52.94
82388;BME280;72027;47.420;9.310;2023-08-17T11:59:10;93600.75;;;26.31;52.00
82388;BME280;72027;47.420;9.310;2023-08-17T12:01:40;93606.41;;;26.16;52.86
82388;BME280;72027;47.420;9.310;2023-08-17T12:04:08;93605.06;;;26.09;52.70
82388;BME280;72027;47.420;9.310;2023-08-17T12:06:43;93608.72;;;26.25;53.95
82388;BME280;72027;47.420;9.310;2023-08-17T12:09:11;93614.22;;;26.39;53.82
82388;BME280;72027;47.420;9.310;2023-08-17T12:11:40;93607.22;;;26.47;53.94
82388;BME280;72027;47.420;9.310;2023-08-17T12:14:09;93616.13;;;26.51;52.68
82388;BME280;72027;47.420;9.310;2023-08-17T12:16:45;93611.75;;;26.50;51.34
82388;BME280;72027;47.420;9.310;2023-08-17T12:19:13;93614.59;;;26.43;53.06
82388;BME280;72027;47.420;9.310;2023-08-17T12:21:43;93617.81;;;26.39;52.49
82388;BME280;72027;47.420;9.310;2023-08-17T12:24:11;93611.13;;;26.13;51.18
82388;BME280;72027;47.420;9.310;2023-08-17T12:26:41;93615.41;;;25.84;52.00
82388;BME280;72027;47.420;9.310;2023-08-17T12:29:09;93617.34;;;25.60;53.70
82388;BME280;72027;47.420;9.310;2023-08-17T12:31:37;93616.69;;;25.39;53.93
82388;BME280;72027;47.420;9.310;2023-08-17T12:34:06;93620.81;;;25.30;54.33
82388;BME280;72027;47.420;9.310;2023-08-17T12:36:34;93620.16;;;25.16;54.35
82388;BME280;72027;47.420;9.310;2023-08-17T12:39:05;93618.50;;;25.00;54.82
82388;BME280;72027;47.420;9.310;2023-08-17T12:41:33;93617.66;;;24.84;55.87
82388;BME280;72027;47.420;9.310;2023-08-17T12:44:01;93613.16;;;24.68;56.73
82388;BME280;72027;47.420;9.310;2023-08-17T12:46:29;93621.41;;;24.58;57.84
82388;BME280;72027;47.420;9.310;2023-08-17T12:48:59;93616.44;;;24.51;57.57
82388;BME280;72027;47.420;9.310;2023-08-17T12:51:27;93617.75;;;24.50;58.29
82388;BME280;72027;47.420;9.310;2023-08-17T12:53:55;93614.06;;;24.42;59.16
82388;BME280;72027;47.420;9.310;2023-08-17T12:56:24;93616.25;;;24.35;58.46
82388;BME280;72027;47.420;9.310;2023-08-17T12:58:52;93610.59;;;24.35;59.55
82388;BME280;72027;47.420;9.310;2023-08-17T13:01:20;93614.75;;;24.34;59.67
82388;BME280;72027;47.420;9.310;2023-08-17T13:03:49;93610.19;;;24.31;59.24
82388;BME280;72027;47.420;9.310;2023-08-17T13:06:17;93609.38;;;24.23;58.93
82388;BME280;72027;47.420;9.310;2023-08-17T13:08:45;93602.31;;;24.16;59.60